sensor_id;sensor_type;location;lat;lon;timestamp;P1;durP1;ratioP1;P2;durP2;ratioP2
63900;SDS011;50538;53.482;10.294;2024-03-23T01:03:28;6.00;;;1.23;;
63900;SDS011;50538;53.482;10.294;2024-03-23T01:13:28;4.93;;;1.00;;
63900;SDS011;50538;53.482;10.294;2024-03-23T01:23:29;6.57;;;1.58;;
63900;SDS011;50538;53.482;10.294;2024-03-23T01:33:29;3.45;;;0.95;;
63900;SDS011;50538;53.482;10.294;2024-03-23T01:43:29;12.50;;;1.23;;
63900;SDS011;50538;53.482;10.294;2024-03-23T01:53:30;3.63;;;0.88;;
63900;SDS011;50538;53.482;10.294;2024-03-23T02:03:30;5.30;;;1.10;;
63900;SDS011;50538;53.482;10.294;2024-03-23T02:13:31;8.77;;;1.63;;
63900;SDS011;50538;53.482;10.294;2024-03-23T02:23:32;14.95;;;1.75;;
63900;SDS011;50538;53.482;10.294;2024-03-23T02:33:32;11.80;;;1.02;;
63900;SDS011;50538;53.482;10.294;2024-03-23T02:43:34;6.00;;;0.90;;
63900;SDS011;50538;53.482;10.294;2024-03-23T02:53:34;9.13;;;1.35;;
63900;SDS011;50538;53.482;10.294;2024-03-23T03:03:35;2.03;;;0.90;;
63900;SDS011;50538;53.482;10.294;2024-03-23T03:13:35;2.40;;;0.98;;
63900;SDS011;50538;53.482;10.294;2024-03-23T03:23:39;10.95;;;1.30;;
63900;SDS011;50538;53.482;10.294;2024-03-23T03:33:40;12.70;;;1.20;;
63900;SDS011;50538;53.482;10.294;2024-03-23T03:43:40;3.53;;;1.08;;
63900;SDS011;50538;53.482;10.294;2024-03-23T03:53:40;0.90;;;0.45;;
63900;SDS011;50538;53.482;10.294;2024-03-23T04:03:41;6.10;;;1.00;;
63900;SDS011;50538;53.482;10.294;2024-03-23T04:13:43;4.75;;;1.52;;
63900;SDS011;50538;53.482;10.294;2024-03-23T04:23:45;13.57;;;2.33;;
63900;SDS011;50538;53.482;10.294;2024-03-23T04:33:46;5.43;;;0.82;;
63900;SDS011;50538;53.482;10.294;2024-03-23T04:43:46;16.30;;;2.15;;
63900;SDS011;50538;53.482;10.294;2024-03-23T04:53:47;5.13;;;1.10;;
63900;SDS011;50538;53.482;10.294;2024-03-23T05:03:48;7.05;;;1.00;;
63900;SDS011;50538;53.482;10.294;2024-03-23T05:13:49;7.95;;;1.05;;
63900;SDS011;50538;53.482;10.294;2024-03-23T05:23:49;5.95;;;1.35;;
63900;SDS011;50538;53.482;10.294;2024-03-23T05:33:51;4.93;;;1.15;;
63900;SDS011;50538;53.482;10.294;2024-03-23T05:43:51;8.40;;;1.25;;
63900;SDS011;50538;53.482;10.294;2024-03-23T05:53:52;6.57;;;1.27;;
63900;SDS011;50538;53.482;10.294;2024-03-23T06:03:52;6.93;;;0.98;;
63900;SDS011;50538;53.482;10.294;2024-03-23T06:13:52;9.32;;;1.50;;
63900;SDS011;50538;53.482;10.294;2024-03-23T06:23:53;9.10;;;1.27;;
63900;SDS011;50538;53.482;10.294;2024-03-23T06:33:55;5.78;;;1.13;;
63900;SDS011;50538;53.482;10.294;2024-03-23T06:43:55;2.38;;;0.90;;
63900;SDS011;50538;53.482;10.294;2024-03-23T06:53:55;7.05;;;1.42;;
63900;SDS011;50538;53.482;10.294;2024-03-23T07:03:56;5.50;;;1.27;;
63900;SDS011;50538;53.482;10.294;2024-03-23T07:13:56;8.35;;;1.30;;
63900;SDS011;50538;53.482;10.294;2024-03-23T07:23:57;12.25;;;1.80;;
63900;SDS011;50538;53.482;10.294;2024-03-23T07:33:57;7.72;;;1.30;;
63900;SDS011;50538;53.482;10.294;2024-03-23T07:43:57;8.93;;;1.65;;
63900;SDS011;50538;53.482;10.294;2024-03-23T07:53:58;10.43;;;2.22;;
63900;SDS011;50538;53.482;10.294;2024-03-23T08:03:58;10.65;;;1.58;;
63900;SDS011;50538;53.482;10.294;2024-03-23T08:13:59;4.32;;;1.25;;
63900;SDS011;50538;53.482;10.294;2024-03-23T08:24:01;6.93;;;1.45;;
63900;SDS011;50538;53.482;10.294;2024-03-23T08:34:01;2.63;;;0.80;;
63900;SDS011;50538;53.482;10.294;2024-03-23T08:44:02;16.98;;;1.20;;
63900;SDS011;50538;53.482;10.294;2024-03-23T08:54:02;7.78;;;1.55;;
63900;SDS011;50538;53.482;10.294;2024-03-23T09:04:02;10.95;;;1.63;;
63900;SDS011;50538;53.482;10.294;2024-03-23T09:14:03;7.22;;;1.55;;
63900;SDS011;50538;53.482;10.294;2024-03-23T09:24:03;7.53;;;1.50;;
63900;SDS011;50538;53.482;10.294;2024-03-23T09:34:04;4.87;;;1.10;;
63900;SDS011;50538;53.482;10.294;2024-03-23T09:44:05;11.13;;;1.17;;
63900;SDS011;50538;53.482;10.294;2024-03-23T09:54:05;4.95;;;1.33;;
63900;SDS011;50538;53.482;10.294;2024-03-23T10:04:06;5.07;;;0.90;;
63900;SDS011;50538;53.482;10.294;2024-03-23T10:14:07;3.28;;;1.13;;
63900;SDS011;50538;53.482;10.294;2024-03-23T10:24:10;7.72;;;1.30;;
63900;SDS011;50538;53.482;10.294;2024-03-23T10:34:12;5.28;;;0.93;;
63900;SDS011;50538;53.482;10.294;2024-03-23T10:44:12;5.82;;;0.77;;
63900;SDS011;50538;53.482;10.294;2024-03-23T10:54:15;3.70;;;0.93;;
63900;SDS011;50538;53.482;10.294;2024-03-23T11:04:29;4.55;;;0.82;;
63900;SDS011;50538;53.482;10.294;2024-03-23T11:14:40;3.10;;;0.57;;
63900;SDS011;50538;53.482;10.294;2024-03-23T11:24:40;3.33;;;0.98;;
63900;SDS011;50538;53.482;10.294;2024-03-23T11:34:43;4.47;;;0.52;;
63900;SDS011;50538;53.482;10.294;2024-03-23T11:44:43;3.45;;;0.52;;
63900;SDS011;50538;53.482;10.294;2024-03-23T11:54:44;2.22;;;0.70;;
63900;SDS011;50538;53.482;10.294;2024-03-23T12:04:46;6.45;;;0.88;;
63900;SDS011;50538;53.482;10.294;2024-03-23T12:15:01;1.55;;;0.60;;
63900;SDS011;50538;53.482;10.294;2024-03-23T12:25:07;2.67;;;0.52;;
63900;SDS011;50538;53.482;10.294;2024-03-23T12:35:07;1.55;;;0.52;;
63900;SDS011;50538;53.482;10.294;2024-03-23T12:45:09;2.88;;;0.60;;
63900;SDS011;50538;53.482;10.294;2024-03-23T12:55:11;1.70;;;0.17;;
63900;SDS011;50538;53.482;10.294;2024-03-23T13:05:13;1.65;;;0.75;;
63900;SDS011;50538;53.482;10.294;2024-03-23T13:15:13;2.10;;;0.45;;
63900;SDS011;50538;53.482;10.294;2024-03-23T13:25:17;3.08;;;0.50;;
63900;SDS011;50538;53.482;10.294;2024-03-23T13:35:18;2.42;;;0.32;;
63900;SDS011;50538;53.482;10.294;2024-03-23T13:45:19;2.55;;;0.50;;
63900;SDS011;50538;53.482;10.294;2024-03-23T13:55:19;0.28;;;0.20;;
63900;SDS011;50538;53.482;10.294;2024-03-23T14:05:21;1.95;;;0.50;;
63900;SDS011;50538;53.482;10.294;2024-03-23T14:15:21;2.10;;;0.43;;
63900;SDS011;50538;53.482;10.294;2024-03-23T14:25:21;1.15;;;0.30;;
63900;SDS011;50538;53.482;10.294;2024-03-23T14:35:27;2.30;;;0.20;;
63900;SDS011;50538;53.482;10.294;2024-03-23T14:45:27;0.80;;;0.40;;
63900;SDS011;50538;53.482;10.294;2024-03-23T14:55:27;1.17;;;0.45;;
63900;SDS011;50538;53.482;10.294;2024-03-23T15:05:28;3.50;;;0.50;;
63900;SDS011;50538;53.482;10.294;2024-03-23T15:15:29;1.52;;;0.70;;
63900;SDS011;50538;53.482;10.294;2024-03-23T15:25:29;2.97;;;0.60;;
63900;SDS011;50538;53.482;10.294;2024-03-23T15:35:30;1.75;;;0.63;;
63900;SDS011;50538;53.482;10.294;2024-03-23T15:45:30;1.40;;;0.60;;
63900;SDS011;50538;53.482;10.294;2024-03-23T15:55:32;0.65;;;0.20;;
63900;SDS011;50538;53.482;10.294;2024-03-23T16:05:35;0.60;;;0.13;;
63900;SDS011;50538;53.482;10.294;2024-03-23T16:15:37;5.57;;;0.63;;
63900;SDS011;50538;53.482;10.294;2024-03-23T16:25:37;2.92;;;0.55;;
63900;SDS011;50538;53.482;10.294;2024-03-23T16:35:42;1.47;;;0.60;;
63900;SDS011;50538;53.482;10.294;2024-03-23T16:45:42;0.40;;;0.20;;
63900;SDS011;50538;53.482;10.294;2024-03-23T16:55:43;1.77;;;0.28;;
63900;SDS011;50538;53.482;10.294;2024-03-23T17:05:44;1.15;;;0.28;;
63900;SDS011;50538;53.482;10.294;2024-03-23T17:15:44;1.85;;;0.20;;
63900;SDS011;50538;53.482;10.294;2024-03-23T17:25:45;0.93;;;0.20;;
63900;SDS011;50538;53.482;10.294;2024-03-23T17:35:46;1.95;;;0.30;;
63900;SDS011;50538;53.482;10.294;2024-03-23T17:45:46;0.50;;;0.43;;
63900;SDS011;50538;53.482;10.294;2024-03-23T17:55:46;1.35;;;0.55;;
63900;SDS011;50538;53.482;10.294;2024-03-23T18:05:47;1.15;;;0.73;;
63900;SDS011;50538;53.482;10.294;2024-03-23T18:15:55;1.35;;;0.50;;
63900;SDS011;50538;53.482;10.294;2024-03-23T18:25:55;0.30;;;0.30;;
63900;SDS011;50538;53.482;10.294;2024-03-23T18:35:56;2.37;;;0.87;;
63900;SDS011;50538;53.482;10.294;2024-03-23T18:45:57;1.23;;;0.45;;
63900;SDS011;50538;53.482;10.294;2024-03-23T18:55:57;3.10;;;0.50;;
63900;SDS011;50538;53.482;10.294;2024-03-23T19:05:58;2.97;;;1.25;;
63900;SDS011;50538;53.482;10.294;2024-03-23T19:16:00;1.33;;;0.85;;
63900;SDS011;50538;53.482;10.294;2024-03-23T19:26:01;3.05;;;0.98;;
63900;SDS011;50538;53.482;10.294;2024-03-23T19:36:03;2.17;;;0.85;;
63900;SDS011;50538;53.482;10.294;2024-03-23T19:46:03;3.45;;;0.93;;
63900;SDS011;50538;53.482;10.294;2024-03-23T19:56:04;2.58;;;1.05;;
63900;SDS011;50538;53.482;10.294;2024-03-23T20:06:07;4.03;;;0.70;;
63900;SDS011;50538;53.482;10.294;2024-03-23T20:16:08;4.72;;;1.33;;
63900;SDS011;50538;53.482;10.294;2024-03-23T20:26:10;1.45;;;0.50;;
63900;SDS011;50538;53.482;10.294;2024-03-23T20:36:10;1.83;;;1.00;;
63900;SDS011;50538;53.482;10.294;2024-03-23T20:46:11;1.88;;;1.10;;
63900;SDS011;50538;53.482;10.294;2024-03-23T20:56:12;1.48;;;0.70;;
63900;SDS011;50538;53.482;10.294;2024-03-23T21:06:13;2.05;;;0.98;;
63900;SDS011;50538;53.482;10.294;2024-03-23T21:16:13;2.15;;;0.88;;
63900;SDS011;50538;53.482;10.294;2024-03-23T21:26:16;3.65;;;1.00;;
63900;SDS011;50538;53.482;10.294;2024-03-23T21:36:16;1.70;;;0.63;;
63900;SDS011;50538;53.482;10.294;2024-03-23T21:46:19;1.95;;;0.82;;
63900;SDS011;50538;53.482;10.294;2024-03-23T21:56:19;1.55;;;0.85;;
63900;SDS011;50538;53.482;10.294;2024-03-23T22:06:19;1.95;;;0.63;;
63900;SDS011;50538;53.482;10.294;2024-03-23T22:16:20;8.85;;;1.10;;
63900;SDS011;50538;53.482;10.294;2024-03-23T22:26:20;3.53;;;0.60;;
63900;SDS011;50538;53.482;10.294;2024-03-23T22:36:20;3.53;;;0.90;;
63900;SDS011;50538;53.482;10.294;2024-03-23T22:46:21;2.30;;;0.90;;
63900;SDS011;50538;53.482;10.294;2024-03-23T22:56:23;4.00;;;1.23;;
63900;SDS011;50538;53.482;10.294;2024-03-23T23:06:24;1.98;;;1.00;;
63900;SDS011;50538;53.482;10.294;2024-03-23T23:16:27;1.50;;;0.60;;
63900;SDS011;50538;53.482;10.294;2024-03-23T23:26:28;1.23;;;0.68;;
63900;SDS011;50538;53.482;10.294;2024-03-23T23:36:28;0.55;;;0.30;;
63900;SDS011;50538;53.482;10.294;2024-03-23T23:46:29;1.33;;;0.57;;
63900;SDS011;50538;53.482;10.294;2024-03-23T23:56:29;3.10;;;0.52;;
